Time;durP1;ratioP1;P1;durP2;ratioP2;P2;SDS_P1;SDS_P2;PMS_P1;PMS_P2;Temp;Humidity;BMP_temperature;BMP_pressure;BME280_temperature;BME280_humidity;BME280_pressure;Samples;Min_cycle;Max_cycle;Signal;HPM_P1;HPM_P2
2023/02/13 00:01:14;;;;;;;33.77;22.47;;;;;;;7.26;100.00;103818.03;5004759;28;20191;-67
2023/02/13 00:03:40;;;;;;;34.80;22.00;;;;;;;7.25;100.00;103811.16;5005151;28;20649;-67
2023/02/13 00:06:06;;;;;;;34.07;22.77;;;;;;;7.27;100.00;103812.16;4999471;28;20258;-68
2023/02/13 00:08:31;;;;;;;33.23;22.40;;;;;;;7.27;100.00;103806.19;5004974;28;20206;-68
2023/02/13 00:10:56;;;;;;;36.00;22.17;;;;;;;7.28;100.00;103818.16;5002688;28;20570;-69
2023/02/13 00:13:22;;;;;;;35.20;22.87;;;;;;;7.27;100.00;103813.84;5002863;28;20230;-68
2023/02/13 00:15:55;;;;;;;34.93;23.10;;;;;;;7.29;100.00;103814.84;5007941;28;20179;-69
2023/02/13 00:18:21;;;;;;;35.13;23.70;;;;;;;7.26;100.00;103817.13;5005872;28;20680;-69
2023/02/13 00:20:59;;;;;;;36.57;22.90;;;;;;;7.28;100.00;103808.84;5016314;28;20202;-69
2023/02/13 00:23:24;;;;;;;34.37;21.93;;;;;;;7.27;100.00;103807.06;5011188;28;20286;-68
2023/02/13 00:25:50;;;;;;;37.27;24.30;;;;;;;7.29;100.00;103808.09;5009899;28;20302;-68
2023/02/13 00:28:15;;;;;;;40.17;23.53;;;;;;;7.29;100.00;103807.19;5008505;28;20234;-68
2023/02/13 00:30:40;;;;;;;33.80;22.33;;;;;;;7.28;100.00;103803.75;5008175;28;20190;-68
2023/02/13 00:33:06;;;;;;;36.43;23.47;;;;;;;7.30;100.00;103807.31;5007789;28;20203;-68
2023/02/13 00:35:31;;;;;;;33.97;22.27;;;;;;;7.31;100.00;103806.53;5008070;28;20274;-68
2023/02/13 00:37:57;;;;;;;35.53;23.40;;;;;;;7.30;100.00;103807.31;4992242;28;20207;-66
2023/02/13 00:40:23;;;;;;;35.93;23.57;;;;;;;7.31;100.00;103801.44;5006682;28;20191;-68
2023/02/13 00:42:49;;;;;;;36.50;24.07;;;;;;;7.31;100.00;103806.53;4989664;28;20198;-66
2023/02/13 00:45:14;;;;;;;33.23;23.10;;;;;;;7.31;100.00;103806.53;5000707;28;20214;-68
2023/02/13 00:47:40;;;;;;;36.13;23.63;;;;;;;7.30;100.00;103803.88;5003311;28;20596;-68
2023/02/13 00:50:06;;;;;;;37.33;24.07;;;;;;;7.29;100.00;103797.91;5003525;28;20227;-68
2023/02/13 00:52:31;;;;;;;37.37;24.80;;;;;;;7.30;100.00;103799.66;5003443;28;20739;-68
2023/02/13 00:54:56;;;;;;;36.07;23.43;;;;;;;7.29;100.00;103808.09;5002254;28;20274;-68
2023/02/13 00:57:22;;;;;;;37.37;24.83;;;;;;;7.29;100.00;103802.09;5002195;28;20219;-67
2023/02/13 00:59:47;;;;;;;37.23;23.93;;;;;;;7.28;100.00;103803.75;5000575;28;20554;-67
2023/02/13 01:02:13;;;;;;;36.73;24.43;;;;;;;7.29;100.00;103807.19;5000364;28;20275;-67
2023/02/13 01:04:38;;;;;;;38.57;24.70;;;;;;;7.29;100.00;103805.53;4991078;28;20221;-67
2023/02/13 01:07:04;;;;;;;34.43;23.17;;;;;;;7.28;100.00;103797.78;4989322;28;21194;-67
2023/02/13 01:09:29;;;;;;;36.90;23.73;;;;;;;7.30;100.00;103798.78;5008507;28;20211;-68
2023/02/13 01:11:54;;;;;;;36.50;23.80;;;;;;;7.28;100.00;103795.22;4976228;28;20195;-67
2023/02/13 01:14:20;;;;;;;37.93;25.27;;;;;;;7.28;100.00;103792.69;5005593;28;20201;-67
2023/02/13 01:16:48;;;;;;;35.33;23.83;;;;;;;7.26;100.00;103789.09;4990342;28;20230;-68
2023/02/13 01:19:13;;;;;;;34.40;22.57;;;;;;;7.26;100.00;103796.75;5009046;28;20226;-68
2023/02/13 01:21:38;;;;;;;36.80;23.77;;;;;;;7.27;100.00;103793.44;5017441;28;20194;-67
2023/02/13 01:24:05;;;;;;;37.27;22.93;;;;;;;7.26;100.00;103792.53;5013616;28;20210;-67
2023/02/13 01:26:30;;;;;;;36.43;23.53;;;;;;;7.26;100.00;103792.53;5015750;28;20215;-67
2023/02/13 01:28:56;;;;;;;37.97;24.13;;;;;;;7.27;100.00;103788.34;5007665;28;20241;-68
2023/02/13 01:31:22;;;;;;;34.73;23.03;;;;;;;7.27;100.00;103786.66;5010959;28;20199;-68
2023/02/13 01:33:49;;;;;;;37.33;23.40;;;;;;;7.27;100.00;103783.25;4999648;28;20233;-68
2023/02/13 01:36:15;;;;;;;37.10;23.43;;;;;;;7.27;100.00;103778.16;5009015;28;20684;-68
2023/02/13 01:38:41;;;;;;;36.90;22.30;;;;;;;7.25;100.00;103785.69;5011387;28;20281;-68
2023/02/13 01:41:08;;;;;;;41.30;24.33;;;;;;;7.23;100.00;103786.31;5008050;28;20623;-68
2023/02/13 01:43:55;;;;;;;35.70;22.40;;;;;;;7.25;100.00;103784.78;5004282;28;20195;-68
2023/02/13 01:46:29;;;;;;;34.23;22.03;;;;;;;7.23;100.00;103782.09;5008026;28;20233;-68
2023/02/13 01:49:01;;;;;;;34.97;22.37;;;;;;;7.22;100.00;103775.22;5008625;28;20206;-68
2023/02/13 01:51:32;;;;;;;33.00;21.37;;;;;;;7.23;100.00;103777.00;5006108;28;20759;-68
2023/02/13 01:54:05;;;;;;;34.80;20.87;;;;;;;7.23;100.00;103771.03;5005140;28;20716;-67
2023/02/13 01:56:43;;;;;;;33.07;21.50;;;;;;;7.21;100.00;103770.91;5006332;28;20210;-67
2023/02/13 01:59:15;;;;;;;31.27;19.93;;;;;;;7.22;100.00;103766.69;5011819;28;20194;-67
2023/02/13 02:01:42;;;;;;;34.83;20.87;;;;;;;7.22;100.00;103765.03;5016293;28;20263;-67
2023/02/13 02:04:25;;;;;;;31.87;21.83;;;;;;;7.20;100.00;103763.13;5013063;28;20187;-67
2023/02/13 02:06:56;;;;;;;31.03;20.67;;;;;;;7.21;100.00;103768.34;5008105;28;20210;-67
2023/02/13 02:09:31;;;;;;;32.57;20.17;;;;;;;7.20;100.00;103768.22;5009005;28;20282;-67
2023/02/13 02:12:22;;;;;;;33.07;21.67;;;;;;;7.17;100.00;103763.78;4996636;28;20219;-67
2023/02/13 02:14:49;;;;;;;29.83;19.70;;;;;;;7.16;100.00;103764.56;5014155;28;20190;-66
2023/02/13 02:17:16;;;;;;;29.90;20.30;;;;;;;7.16;100.00;103759.47;5009297;28;20210;-66
2023/02/13 02:20:06;;;;;;;34.80;21.40;;;;;;;7.16;100.00;103759.47;5009597;28;20201;-66
2023/02/13 02:22:56;;;;;;;31.77;20.60;;;;;;;7.16;100.00;103756.00;5011481;28;20191;-67
2023/02/13 02:25:34;;;;;;;29.57;20.20;;;;;;;7.15;100.00;103756.78;5009626;28;20206;-67
2023/02/13 02:28:25;;;;;;;32.60;19.47;;;;;;;7.13;100.00;103755.75;5011703;28;20656;-69
2023/02/13 02:31:42;;;;;;;31.23;19.67;;;;;;;7.16;100.00;103763.66;4996238;28;20198;-69
2023/02/13 02:34:24;;;;;;;31.40;19.53;;;;;;;7.14;100.00;103758.44;4943092;28;20668;-68
2023/02/13 02:37:26;;;;;;;29.03;19.53;;;;;;;7.10;100.00;103758.09;4991772;28;20221;-68
2023/02/13 02:40:39;;;;;;;28.33;18.90;;;;;;;7.11;100.00;103759.84;5004765;28;20410;-68
2023/02/13 02:43:17;;;;;;;27.33;19.03;;;;;;;7.10;100.00;103751.31;4941580;28;20199;-68
2023/02/13 02:46:24;;;;;;;30.47;19.37;;;;;;;7.10;100.00;103756.41;4997397;28;20213;-68
2023/02/13 02:52:07;;;;;;;30.97;18.20;;;;;;;7.09;100.00;103749.53;5002060;28;20232;-68
2023/02/13 02:55:09;;;;;;;24.37;17.43;;;;;;;7.10;100.00;103760.63;5010692;28;20210;-68
2023/02/13 03:06:17;;;;;;;26.43;16.30;;;;;;;7.06;100.00;103748.41;5008282;28;20230;-68
2023/02/13 03:14:24;;;;;;;24.17;15.67;;;;;;;7.02;100.00;103748.94;5011988;28;20214;-68
2023/02/13 03:23:10;;;;;;;21.70;14.47;;;;;;;7.01;100.00;103753.13;5012989;28;20220;-68
2023/02/13 03:25:52;;;;;;;22.97;14.40;;;;;;;7.01;100.00;103754.78;4972334;28;20251;-68
2023/02/13 03:31:31;;;;;;;21.03;14.70;;;;;;;6.98;100.00;103746.91;5011560;28;20695;-68
2023/02/13 03:34:09;;;;;;;21.13;15.07;;;;;;;6.98;100.00;103752.00;5007917;28;20237;-67
2023/02/13 03:39:55;;;;;;;25.50;16.60;;;;;;;6.96;100.00;103740.81;5010582;28;20273;-67
2023/02/13 03:42:29;;;;;;;23.43;15.97;;;;;;;6.93;100.00;103750.72;5015376;28;20195;-67
2023/02/13 03:47:55;;;;;;;23.33;15.13;;;;;;;6.94;100.00;103749.97;4992259;28;20711;-68
2023/02/13 03:50:22;;;;;;;21.13;15.03;;;;;;;6.89;100.00;103752.16;5011482;28;20203;-68
2023/02/13 03:52:57;;;;;;;21.27;14.77;;;;;;;6.88;100.00;103749.47;5006207;28;20210;-68
2023/02/13 04:01:06;;;;;;;22.60;13.87;;;;;;;6.87;100.00;103757.88;5009663;28;20226;-67
2023/02/13 04:03:45;;;;;;;22.47;14.83;;;;;;;6.88;100.00;103757.13;5009354;28;20691;-67
2023/02/13 04:06:15;;;;;;;24.13;14.20;;;;;;;6.86;100.00;103756.97;5011487;28;20222;-67
2023/02/13 04:08:41;;;;;;;20.97;13.27;;;;;;;6.87;100.00;103753.66;5014686;28;20204;-67
2023/02/13 04:11:12;;;;;;;18.07;13.37;;;;;;;6.87;100.00;103756.22;5006329;28;20214;-67
2023/02/13 04:13:54;;;;;;;17.27;12.70;;;;;;;6.87;100.00;103755.34;5010094;28;20221;-67
2023/02/13 04:16:27;;;;;;;19.27;13.23;;;;;;;6.86;100.00;103756.13;5011076;28;20289;-67
2023/02/13 04:18:54;;;;;;;21.03;14.20;;;;;;;6.87;100.00;103762.97;5010214;28;20203;-67
2023/02/13 04:21:20;;;;;;;19.33;13.40;;;;;;;6.85;100.00;103760.31;5003713;28;20266;-67
2023/02/13 04:23:45;;;;;;;20.83;12.70;;;;;;;6.84;100.00;103761.09;5008012;28;20699;-67
2023/02/13 04:26:18;;;;;;;19.23;12.23;;;;;;;6.86;100.00;103763.75;5009561;28;20233;-67
2023/02/13 04:28:44;;;;;;;17.23;12.80;;;;;;;6.86;100.00;103759.53;5012429;28;20190;-67
2023/02/13 04:31:09;;;;;;;21.77;13.10;;;;;;;6.86;100.00;103754.44;5015087;28;20286;-67
2023/02/13 04:33:35;;;;;;;18.40;12.60;;;;;;;6.85;100.00;103751.75;5012471;28;20206;-67
2023/02/13 04:36:00;;;;;;;17.03;12.53;;;;;;;6.85;100.00;103751.75;5012046;28;20835;-67
2023/02/13 04:38:26;;;;;;;17.73;12.13;;;;;;;6.84;100.00;103748.34;5013203;28;20245;-67
2023/02/13 04:40:51;;;;;;;17.13;12.07;;;;;;;6.82;100.00;103752.41;5014792;28;20199;-67
2023/02/13 04:43:17;;;;;;;17.27;12.40;;;;;;;6.82;100.00;103760.03;5011059;28;20278;-67
2023/02/13 04:45:42;;;;;;;17.53;12.23;;;;;;;6.82;100.00;103765.13;5009679;28;20730;-67
2023/02/13 04:48:07;;;;;;;18.23;12.47;;;;;;;6.81;100.00;103754.84;5010742;28;20624;-67
2023/02/13 04:50:33;;;;;;;17.17;12.60;;;;;;;6.79;100.00;103759.81;5014481;28;20209;-67
2023/02/13 04:52:58;;;;;;;17.80;13.13;;;;;;;6.80;100.00;103764.13;5010775;28;20214;-67
2023/02/13 04:55:26;;;;;;;19.83;12.87;;;;;;;6.80;100.00;103758.13;5004524;28;20279;-67
2023/02/13 04:57:53;;;;;;;19.13;13.37;;;;;;;6.79;100.00;103764.00;5005906;28;20215;-67
2023/02/13 05:00:20;;;;;;;18.10;12.50;;;;;;;6.79;100.00;103764.00;4992716;28;20237;-67
2023/02/13 05:02:45;;;;;;;20.17;12.50;;;;;;;6.78;100.00;103760.56;5010635;28;20209;-67
2023/02/13 05:05:11;;;;;;;19.80;12.13;;;;;;;6.79;100.00;103758.91;5007264;28;20207;-67
2023/02/13 05:07:36;;;;;;;18.23;12.47;;;;;;;6.76;100.00;103757.00;5006833;28;20226;-67
2023/02/13 05:10:02;;;;;;;18.43;13.77;;;;;;;6.76;100.00;103757.00;5010214;28;20207;-67
2023/02/13 05:12:27;;;;;;;23.17;13.07;;;;;;;6.76;100.00;103756.09;5009718;28;20230;-67
2023/02/13 05:14:53;;;;;;;17.67;12.40;;;;;;;6.73;100.00;103751.66;5006892;28;20198;-67
2023/02/13 05:17:18;;;;;;;19.40;13.30;;;;;;;6.73;100.00;103745.69;4998867;28;20211;-67
2023/02/13 05:19:44;;;;;;;22.23;13.40;;;;;;;6.70;100.00;103748.88;5010189;28;20191;-67
2023/02/13 05:24:54;;;;;;;22.40;14.27;;;;;;;6.68;100.00;103757.16;5005156;28;20199;-67
2023/02/13 05:27:20;;;;;;;19.97;13.53;;;;;;;6.67;100.00;103758.81;5001837;28;20225;-67
2023/02/13 05:29:45;;;;;;;21.17;13.57;;;;;;;6.64;100.00;103758.53;4989022;28;20214;-67
2023/02/13 05:32:10;;;;;;;19.63;13.27;;;;;;;6.61;100.00;103757.41;5002952;28;20608;-67
2023/02/13 05:34:36;;;;;;;20.70;14.30;;;;;;;6.62;100.00;103756.63;5005978;28;20191;-67
2023/02/13 05:37:01;;;;;;;19.13;13.93;;;;;;;6.60;100.00;103761.63;5009181;28;20885;-67
2023/02/13 05:39:27;;;;;;;21.33;13.83;;;;;;;6.59;100.00;103761.50;5002808;28;20187;-67
2023/02/13 05:41:52;;;;;;;20.70;14.53;;;;;;;6.59;100.00;103759.81;5005373;28;20209;-67
2023/02/13 05:44:17;;;;;;;21.87;14.93;;;;;;;6.59;100.00;103764.91;5007546;28;20722;-67
2023/02/13 05:46:44;;;;;;;21.07;15.40;;;;;;;6.59;100.00;103767.47;5005143;28;20594;-67
2023/02/13 05:49:12;;;;;;;25.90;15.43;;;;;;;6.60;100.00;103763.28;5005848;28;20674;-67
2023/02/13 05:51:38;;;;;;;24.27;14.53;;;;;;;6.58;100.00;103758.06;5001963;28;20234;-67
2023/02/13 05:54:03;;;;;;;22.77;14.23;;;;;;;6.58;100.00;103758.06;5003776;28;20641;-67
2023/02/13 05:56:29;;;;;;;23.40;15.03;;;;;;;6.60;100.00;103766.72;5008389;28;20199;-67
2023/02/13 05:58:55;;;;;;;21.00;14.63;;;;;;;6.59;100.00;103761.50;5009535;28;20195;-67
2023/02/13 06:01:22;;;;;;;22.40;15.20;;;;;;;6.60;100.00;103756.53;5006736;28;20219;-67
2023/02/13 06:03:48;;;;;;;21.67;14.20;;;;;;;6.59;100.00;103764.91;5002543;28;20249;-67
2023/02/13 06:06:14;;;;;;;19.10;13.90;;;;;;;6.57;100.00;103766.47;5003405;28;20727;-67
2023/02/13 06:08:40;;;;;;;21.00;14.10;;;;;;;6.58;100.00;103767.38;4988211;28;20195;-67
2023/02/13 06:11:05;;;;;;;22.67;14.93;;;;;;;6.56;100.00;103772.31;5006949;28;20210;-67
2023/02/13 06:13:31;;;;;;;21.73;14.17;;;;;;;6.52;100.00;103777.91;4989611;28;20202;-67
2023/02/13 06:15:56;;;;;;;22.93;14.37;;;;;;;6.52;100.00;103780.47;5008720;28;20245;-67
2023/02/13 06:18:22;;;;;;;20.57;14.10;;;;;;;6.50;100.00;103779.44;5007537;28;20194;-67
2023/02/13 06:20:48;;;;;;;21.37;14.53;;;;;;;6.51;100.00;103777.78;5002396;28;20198;-68
2023/02/13 06:23:14;;;;;;;21.43;14.90;;;;;;;6.50;100.00;103783.66;5006967;28;20294;-67
2023/02/13 06:25:40;;;;;;;21.13;14.27;;;;;;;6.48;100.00;103788.59;5008996;28;20198;-67
2023/02/13 06:28:05;;;;;;;21.53;15.57;;;;;;;6.49;100.00;103782.75;5008914;28;20187;-67
2023/02/13 06:30:31;;;;;;;21.80;14.27;;;;;;;6.47;100.00;103775.75;5007395;28;20253;-67
2023/02/13 06:32:57;;;;;;;24.57;15.63;;;;;;;6.47;100.00;103789.38;5005075;28;20206;-67
2023/02/13 06:35:22;;;;;;;22.33;15.37;;;;;;;6.46;100.00;103789.25;5006376;28;20241;-69
2023/02/13 06:37:48;;;;;;;24.83;15.40;;;;;;;6.48;100.00;103791.16;5007084;28;20567;-68
2023/02/13 06:40:15;;;;;;;24.83;13.90;;;;;;;6.48;100.00;103795.34;5006516;28;20237;-68
2023/02/13 06:42:44;;;;;;;23.33;14.93;;;;;;;6.48;100.00;103792.78;5006951;28;20248;-69
2023/02/13 06:45:09;;;;;;;24.93;15.70;;;;;;;6.46;100.00;103794.34;5003440;28;20195;-68
2023/02/13 06:47:35;;;;;;;22.70;16.27;;;;;;;6.43;100.00;103794.97;5002548;28;20723;-68
2023/02/13 06:50:01;;;;;;;21.50;15.20;;;;;;;6.46;100.00;103794.34;5007589;28;20191;-68
2023/02/13 06:52:26;;;;;;;22.60;15.30;;;;;;;6.45;100.00;103792.56;4986831;28;20203;-68
2023/02/13 06:54:52;;;;;;;20.33;15.23;;;;;;;6.44;100.00;103798.41;5005785;28;20222;-68
2023/02/13 06:57:17;;;;;;;20.33;15.20;;;;;;;6.43;100.00;103796.63;4988191;28;20254;-68
2023/02/13 06:59:43;;;;;;;25.00;17.27;;;;;;;6.42;100.00;103798.28;5007764;28;20265;-68
2023/02/13 07:02:10;;;;;;;21.73;16.13;;;;;;;6.42;100.00;103807.56;5007338;28;20203;-68
2023/02/13 07:04:35;;;;;;;23.30;14.50;;;;;;;6.42;100.00;103807.56;5008497;28;20203;-68
2023/02/13 07:07:01;;;;;;;20.70;14.43;;;;;;;6.44;100.00;103813.69;5008554;28;20234;-67
2023/02/13 07:09:26;;;;;;;22.57;14.87;;;;;;;6.43;100.00;103820.41;5009351;28;20203;-68
2023/02/13 07:11:52;;;;;;;24.53;15.63;;;;;;;6.42;100.00;103813.56;5006527;28;20191;-68
2023/02/13 07:14:17;;;;;;;21.63;15.80;;;;;;;6.41;100.00;103824.47;5010295;28;20285;-68
2023/02/13 07:16:43;;;;;;;22.80;16.03;;;;;;;6.42;100.00;103821.19;5009947;28;20710;-67
2023/02/13 07:19:08;;;;;;;21.63;15.10;;;;;;;6.45;100.00;103825.66;5009493;28;20203;-67
2023/02/13 07:21:34;;;;;;;23.83;15.83;;;;;;;6.45;100.00;103823.97;5012106;28;20199;-67
2023/02/13 07:24:00;;;;;;;24.93;17.03;;;;;;;6.48;100.00;103820.78;5011330;28;20194;-67
2023/02/13 07:26:26;;;;;;;25.87;16.27;;;;;;;6.48;100.00;103830.97;5008457;28;20306;-67
2023/02/13 07:28:52;;;;;;;26.10;17.67;;;;;;;6.49;100.00;103831.09;5010871;28;20201;-67
2023/02/13 07:31:17;;;;;;;22.87;16.37;;;;;;;6.48;100.00;103823.34;5006562;28;20199;-67
2023/02/13 07:33:43;;;;;;;25.13;16.63;;;;;;;6.49;100.00;103832.78;5006851;28;20659;-67
2023/02/13 07:36:08;;;;;;;26.03;17.13;;;;;;;6.50;100.00;103835.41;5007165;28;20214;-67
2023/02/13 07:38:34;;;;;;;27.40;17.33;;;;;;;6.52;100.00;103833.91;5010662;28;20568;-67
2023/02/13 07:41:00;;;;;;;27.43;18.67;;;;;;;6.54;100.00;103834.06;5008836;28;20192;-67
2023/02/13 07:43:27;;;;;;;28.83;17.57;;;;;;;6.56;100.00;103835.06;5012662;28;20257;-67
2023/02/13 07:45:54;;;;;;;28.00;18.97;;;;;;;6.57;100.00;103845.38;5010002;28;20195;-67
2023/02/13 07:48:23;;;;;;;29.43;17.30;;;;;;;6.59;100.00;103840.41;5012050;28;20203;-67
2023/02/13 07:50:49;;;;;;;28.80;18.37;;;;;;;6.60;100.00;103844.72;5012042;28;20206;-67
2023/02/13 07:53:14;;;;;;;28.03;17.80;;;;;;;6.61;100.00;103856.69;5006587;28;20286;-67
2023/02/13 07:55:40;;;;;;;26.97;17.70;;;;;;;6.62;100.00;103851.72;5012964;28;20669;-67
2023/02/13 07:58:05;;;;;;;28.77;18.53;;;;;;;6.62;100.00;103851.72;5012785;28;20570;-67
2023/02/13 08:00:31;;;;;;;29.17;18.90;;;;;;;6.63;100.00;103848.41;5012636;28;20565;-67
2023/02/13 08:03:00;;;;;;;27.60;17.77;;;;;;;6.65;100.00;103856.19;5011238;28;20222;-67
2023/02/13 08:05:26;;;;;;;28.47;17.87;;;;;;;6.67;100.00;103850.47;5011287;28;20270;-67
2023/02/13 08:07:52;;;;;;;30.57;18.83;;;;;;;6.68;100.00;103851.38;5010883;28;20222;-67
2023/02/13 08:13:04;;;;;;;28.37;18.57;;;;;;;6.71;100.00;103844.88;5011794;28;20198;-67
2023/02/13 08:15:29;;;;;;;33.23;19.47;;;;;;;6.72;100.00;103856.81;5012701;28;20274;-67
2023/02/13 08:17:55;;;;;;;29.07;17.97;;;;;;;6.74;100.00;103852.75;5013646;28;20358;-67
2023/02/13 08:20:20;;;;;;;26.30;18.07;;;;;;;6.77;100.00;103857.22;5004640;28;20202;-67
2023/02/13 08:22:46;;;;;;;30.03;19.40;;;;;;;6.79;100.00;103848.03;5009176;28;20194;-67
2023/02/13 08:25:12;;;;;;;26.63;18.50;;;;;;;6.82;100.00;103854.25;5007891;28;20209;-67
2023/02/13 08:27:38;;;;;;;28.30;19.07;;;;;;;6.82;100.00;103850.84;5013932;28;20221;-68
2023/02/13 08:30:04;;;;;;;26.53;19.00;;;;;;;6.84;100.00;103844.22;5009509;28;20202;-69
2023/02/13 08:32:30;;;;;;;27.27;18.80;;;;;;;6.86;100.00;103851.22;5012148;28;20515;-68
2023/02/13 08:34:55;;;;;;;29.57;19.33;;;;;;;6.89;100.00;103858.22;5011731;28;20190;-67
2023/02/13 08:37:21;;;;;;;28.73;18.53;;;;;;;6.88;100.00;103852.25;5011172;28;20202;-67
2023/02/13 08:39:47;;;;;;;30.93;19.40;;;;;;;6.92;100.00;103856.84;5007854;28;20401;-67
2023/02/13 08:42:13;;;;;;;31.50;18.83;;;;;;;6.94;100.00;103851.84;5010281;28;20211;-67
2023/02/13 08:44:40;;;;;;;29.70;18.83;;;;;;;6.96;100.00;103861.38;5012495;28;20245;-67
2023/02/13 08:47:06;;;;;;;27.67;17.17;;;;;;;6.97;100.00;103860.66;5012377;28;20215;-67
2023/02/13 08:49:32;;;;;;;27.13;18.03;;;;;;;6.99;100.00;103858.19;5013025;28;20195;-67
2023/02/13 08:51:59;;;;;;;28.03;18.77;;;;;;;7.01;100.00;103860.09;5012016;28;20699;-67
2023/02/13 08:54:24;;;;;;;27.40;19.30;;;;;;;7.01;100.00;103866.88;5008854;28;20191;-67
2023/02/13 08:56:50;;;;;;;29.97;19.70;;;;;;;7.00;100.00;103865.97;4995605;28;20226;-67
2023/02/13 08:59:15;;;;;;;31.50;19.30;;;;;;;7.03;100.00;103865.31;5009914;28;20205;-67
2023/02/13 09:01:41;;;;;;;35.97;19.63;;;;;;;7.05;100.00;103859.59;5011777;28;20278;-67
2023/02/13 09:04:06;;;;;;;30.00;19.50;;;;;;;7.08;100.00;103858.94;5011390;28;20249;-67
2023/02/13 09:06:32;;;;;;;29.27;19.30;;;;;;;7.09;100.00;103864.19;5007060;28;20709;-67
2023/02/13 09:08:57;;;;;;;28.83;18.80;;;;;;;7.14;100.00;103855.25;5009633;28;20195;-67
2023/02/13 09:11:23;;;;;;;33.37;20.27;;;;;;;7.14;100.00;103857.78;5006216;28;20203;-67
2023/02/13 09:13:52;;;;;;;31.40;20.40;;;;;;;7.17;100.00;103852.06;5012664;28;20285;-67
2023/02/13 09:16:17;;;;;;;32.03;19.83;;;;;;;7.18;100.00;103847.09;5007128;28;20242;-67
2023/02/13 09:18:46;;;;;;;29.50;20.30;;;;;;;7.21;100.00;103843.91;5010407;28;20224;-67
2023/02/13 09:21:12;;;;;;;34.07;20.27;;;;;;;7.25;100.00;103854.47;5010471;28;20194;-67
2023/02/13 09:23:39;;;;;;;28.23;18.97;;;;;;;7.29;100.00;103850.50;5008973;28;20198;-67
2023/02/13 09:26:08;;;;;;;28.20;19.63;;;;;;;7.31;100.00;103857.50;5009343;28;20234;-67
2023/02/13 09:28:34;;;;;;;28.60;19.67;;;;;;;7.28;100.00;103858.94;5009008;28;20195;-67
2023/02/13 09:31:18;;;;;;;29.17;19.43;;;;;;;7.30;100.00;103853.19;5009386;28;20214;-66
2023/02/13 09:33:45;;;;;;;32.10;19.50;;;;;;;7.32;100.00;103855.88;5007991;28;20891;-67
2023/02/13 09:36:15;;;;;;;28.97;19.93;;;;;;;7.35;100.00;103862.09;5010256;28;20584;-66
2023/02/13 09:38:42;;;;;;;32.53;20.97;;;;;;;7.37;100.00;103860.53;5014678;28;20198;-66
2023/02/13 09:41:16;;;;;;;30.67;19.90;;;;;;;7.41;100.00;103857.47;5010353;28;20282;-66
2023/02/13 09:43:52;;;;;;;31.27;19.83;;;;;;;7.44;100.00;103861.94;5013144;28;20597;-68
2023/02/13 09:46:28;;;;;;;31.03;19.40;;;;;;;7.45;100.00;103856.97;5008426;28;20226;-68
2023/02/13 09:48:58;;;;;;;27.43;18.97;;;;;;;7.47;100.00;103852.00;5007989;28;20207;-68
2023/02/13 09:51:25;;;;;;;30.37;19.20;;;;;;;7.49;100.00;103848.78;5010161;28;20238;-68
2023/02/13 09:54:01;;;;;;;29.20;19.70;;;;;;;7.53;100.00;103850.81;5010392;28;20197;-68
2023/02/13 09:56:37;;;;;;;27.40;19.50;;;;;;;7.56;100.00;103845.06;5008595;28;20587;-68
2023/02/13 09:59:52;;;;;;;29.67;19.63;;;;;;;7.58;100.00;103846.97;5006094;28;20669;-68
2023/02/13 10:02:48;;;;;;;29.30;19.37;;;;;;;7.61;100.00;103851.44;4990405;28;20222;-67
2023/02/13 10:05:28;;;;;;;25.20;17.70;;;;;;;7.62;100.00;103850.66;5010936;28;20195;-68
2023/02/13 10:08:17;;;;;;;27.10;18.10;;;;;;;7.65;100.00;103848.34;5006249;28;20229;-68
2023/02/13 10:10:55;;;;;;;29.63;19.40;;;;;;;7.66;100.00;103843.38;5010995;28;20202;-67
2023/02/13 10:13:33;;;;;;;26.97;18.10;;;;;;;7.66;100.00;103858.69;5005400;28;20291;-67
2023/02/13 10:16:15;;;;;;;30.50;19.80;;;;;;;7.68;100.00;103849.47;5009766;28;20218;-68
2023/02/13 10:18:52;;;;;;;26.97;17.80;;;;;;;7.72;100.00;103841.31;5009877;28;20213;-68
2023/02/13 10:21:21;;;;;;;30.50;18.87;;;;;;;7.75;100.00;103838.09;5006547;28;20245;-67
2023/02/13 10:23:52;;;;;;;26.63;19.17;;;;;;;7.75;100.00;103831.34;5004232;28;20289;-68
2023/02/13 10:26:20;;;;;;;29.07;19.37;;;;;;;7.79;100.00;103827.38;4996940;28;20215;-68
2023/02/13 10:31:50;;;;;;;29.10;18.73;;;;;;;7.89;100.00;103829.88;5009521;28;20205;-68
2023/02/13 10:34:20;;;;;;;26.20;18.03;;;;;;;7.89;100.00;103834.97;5009239;28;20203;-67
2023/02/13 10:36:46;;;;;;;27.40;18.03;;;;;;;7.92;100.00;103835.22;4992771;28;20221;-68
2023/02/13 10:39:21;;;;;;;28.27;19.53;;;;;;;7.96;100.00;103834.66;5008963;28;20214;-67
2023/02/13 10:41:58;;;;;;;29.33;19.57;;;;;;;7.97;100.00;103839.88;4994946;28;20193;-67
2023/02/13 10:44:27;;;;;;;29.10;18.57;;;;;;;7.96;100.00;103829.56;5009384;28;20253;-67
2023/02/13 10:46:55;;;;;;;26.27;18.20;;;;;;;8.01;100.00;103835.94;5014313;28;20210;-67
2023/02/13 10:49:33;;;;;;;26.30;16.77;;;;;;;8.02;100.00;103841.13;5012876;28;20237;-66
2023/02/13 10:52:04;;;;;;;25.67;17.33;;;;;;;8.06;100.00;103837.19;5012026;28;20289;-67
2023/02/13 10:54:58;;;;;;;25.90;17.93;;;;;;;8.05;100.00;103835.38;5016817;28;20210;-67
2023/02/13 10:57:52;;;;;;;29.03;18.20;;;;;;;8.11;100.00;103838.44;5013499;28;20239;-67
2023/02/13 11:00:29;;;;;;;25.33;17.67;;;;;;;8.12;100.00;103830.91;5010767;28;20258;-67
2023/02/13 11:02:55;;;;;;;30.20;17.17;;;;;;;8.11;100.00;103835.88;5013263;28;20199;-68
2023/02/13 11:05:23;;;;;;;28.10;18.00;;;;;;;8.15;100.00;103830.25;5011172;28;20277;-68
2023/02/13 11:07:49;;;;;;;25.97;17.57;;;;;;;8.09;100.00;103829.75;5006326;28;20218;-67
2023/02/13 11:10:23;;;;;;;25.00;17.00;;;;;;;8.18;100.00;103833.91;5011393;28;20756;-67
2023/02/13 11:12:50;;;;;;;24.80;16.87;;;;;;;8.22;100.00;103832.50;5009921;28;20269;-68
2023/02/13 11:15:31;;;;;;;23.33;16.77;;;;;;;8.20;100.00;103832.38;4991395;28;20222;-68
2023/02/13 11:17:59;;;;;;;26.30;16.73;;;;;;;8.26;100.00;103826.88;5013272;28;20210;-67
2023/02/13 11:20:45;;;;;;;23.57;17.03;;;;;;;8.27;100.00;103827.00;5014498;28;20206;-68
2023/02/13 11:23:23;;;;;;;22.83;16.30;;;;;;;8.29;100.00;103830.53;4998495;28;20261;-67
2023/02/13 11:26:06;;;;;;;24.70;16.17;;;;;;;8.34;100.00;103829.22;5015579;28;20337;-69
2023/02/13 11:28:36;;;;;;;22.40;15.73;;;;;;;8.33;100.00;103827.44;5012748;28;20246;-68
2023/02/13 11:31:27;;;;;;;21.77;16.13;;;;;;;8.34;100.00;103830.91;5011408;28;20199;-69
2023/02/13 11:33:53;;;;;;;20.70;14.87;;;;;;;8.31;100.00;103826.47;4986170;28;20311;-68
2023/02/13 11:36:28;;;;;;;23.63;15.40;;;;;;;8.30;100.00;103827.19;5013407;28;20203;-68
2023/02/13 11:39:05;;;;;;;21.60;16.07;;;;;;;8.30;100.00;103832.31;5012042;28;20229;-68
2023/02/13 11:41:39;;;;;;;18.27;14.20;;;;;;;8.36;100.00;103830.25;5013976;28;20668;-67
2023/02/13 11:44:20;;;;;;;21.17;15.00;;;;;;;8.36;100.00;103837.91;5014172;28;20337;-67
2023/02/13 11:46:48;;;;;;;19.57;13.97;;;;;;;8.34;100.00;103836.88;5009145;28;20258;-67
2023/02/13 11:49:18;;;;;;;20.63;14.17;;;;;;;8.29;100.00;103832.22;5008142;28;20218;-67
2023/02/13 11:51:49;;;;;;;20.37;14.20;;;;;;;8.33;100.00;103829.09;5007058;28;20667;-67
2023/02/13 11:54:33;;;;;;;19.03;13.97;;;;;;;8.29;100.00;103835.63;5008860;28;20210;-67
2023/02/13 11:57:21;;;;;;;20.43;13.60;;;;;;;8.27;100.00;103828.66;5011362;28;20206;-67
2023/02/13 11:59:49;;;;;;;22.20;14.63;;;;;;;8.35;100.00;103832.69;5008039;28;20191;-68
2023/02/13 12:02:29;;;;;;;18.70;12.90;;;;;;;8.35;100.00;103835.22;5010660;28;20199;-67
2023/02/13 12:05:18;;;;;;;19.73;13.10;;;;;;;8.35;100.00;103823.38;5009294;28;20289;-68
2023/02/13 12:07:45;;;;;;;19.70;13.90;;;;;;;8.37;100.00;103826.91;5010264;28;20226;-68
2023/02/13 12:10:16;;;;;;;17.60;12.63;;;;;;;8.41;100.00;103821.28;5012559;28;20285;-68